Time;durP1;ratioP1;P1;durP2;ratioP2;P2;SDS_P1;SDS_P2;PMS_P1;PMS_P2;Temp;Humidity;BMP_temperature;BMP_pressure;BME280_temperature;BME280_humidity;BME280_pressure;Samples;Min_cycle;Max_cycle;Signal;HPM_P1;HPM_P2
2023/05/16 00:02:01;;;;;;;14.00;8.32;;;;;;;;;;5025781;28;20032;-74
2023/05/16 00:04:27;;;;;;;11.63;6.72;;;;;;;;;;5032304;28;20104;-73
2023/05/16 00:06:53;;;;;;;13.00;6.55;;;;;;;;;;5032936;28;20032;-73
2023/05/16 00:09:20;;;;;;;10.90;5.85;;;;;;;;;;5032805;28;20029;-74
2023/05/16 00:11:47;;;;;;;13.27;5.75;;;;;;;;;;5033223;28;20021;-74
2023/05/16 00:14:14;;;;;;;13.23;5.78;;;;;;;;;;5032560;28;20022;-73
2023/05/16 00:16:40;;;;;;;11.27;5.18;;;;;;;;;;5032652;28;20013;-74
2023/05/16 00:19:07;;;;;;;13.73;4.88;;;;;;;;;;5032688;28;20026;-73
2023/05/16 00:21:33;;;;;;;9.75;4.57;;;;;;;;;;5032421;28;20104;-73
2023/05/16 00:23:59;;;;;;;10.25;4.30;;;;;;;;;;5032260;28;20071;-74
2023/05/16 00:26:25;;;;;;;10.00;4.13;;;;;;;;;;5032356;28;20036;-74
2023/05/16 00:28:51;;;;;;;9.13;3.50;;;;;;;;;;5032224;28;20101;-73
2023/05/16 00:31:17;;;;;;;6.28;3.45;;;;;;;;;;5032228;28;20035;-74
2023/05/16 00:33:43;;;;;;;8.60;3.25;;;;;;;;;;5032053;28;20143;-73
2023/05/16 00:36:10;;;;;;;11.00;3.10;;;;;;;;;;5032415;28;20482;-74
2023/05/16 00:38:36;;;;;;;8.18;3.03;;;;;;;;;;5032462;28;20017;-74
2023/05/16 00:41:03;;;;;;;10.90;3.00;;;;;;;;;;5032093;28;20029;-73
2023/05/16 00:43:29;;;;;;;10.68;3.40;;;;;;;;;;5031814;28;20029;-73
2023/05/16 00:45:56;;;;;;;10.80;3.53;;;;;;;;;;5032008;28;20502;-74
2023/05/16 00:48:23;;;;;;;11.23;2.67;;;;;;;;;;5032107;28;20392;-73
2023/05/16 00:50:49;;;;;;;7.13;2.70;;;;;;;;;;5032049;28;20021;-74
2023/05/16 00:53:15;;;;;;;10.25;3.03;;;;;;;;;;5031746;28;20022;-73
2023/05/16 00:55:41;;;;;;;13.15;3.20;;;;;;;;;;5032025;28;20311;-73
2023/05/16 00:58:08;;;;;;;12.18;2.95;;;;;;;;;;5031802;28;20022;-74
2023/05/16 01:00:35;;;;;;;7.70;2.75;;;;;;;;;;5031845;28;20087;-74
2023/05/16 01:03:01;;;;;;;11.75;2.70;;;;;;;;;;5031481;28;20062;-74
2023/05/16 01:05:27;;;;;;;6.50;2.80;;;;;;;;;;5031792;28;20026;-74
2023/05/16 01:07:53;;;;;;;8.45;3.10;;;;;;;;;;5031712;28;20040;-74
2023/05/16 01:10:19;;;;;;;10.43;3.13;;;;;;;;;;5031713;28;20033;-73
2023/05/16 01:13:06;;;;;;;10.45;2.85;;;;;;;;;;5030903;28;20021;-73
2023/05/16 01:15:39;;;;;;;11.38;3.30;;;;;;;;;;5031740;28;20110;-75
2023/05/16 01:18:08;;;;;;;9.85;3.42;;;;;;;;;;5031766;28;20022;-73
2023/05/16 01:20:47;;;;;;;10.15;2.90;;;;;;;;;;5030810;28;20026;-74
2023/05/16 01:23:13;;;;;;;11.63;3.40;;;;;;;;;;5031194;28;20060;-74
2023/05/16 01:25:45;;;;;;;10.95;3.85;;;;;;;;;;5031643;28;20061;-74
2023/05/16 01:28:13;;;;;;;9.40;3.80;;;;;;;;;;5031652;28;20032;-75
2023/05/16 01:30:43;;;;;;;13.77;3.83;;;;;;;;;;5031276;28;20030;-75
2023/05/16 01:33:09;;;;;;;14.88;4.82;;;;;;;;;;5031193;28;20026;-76
2023/05/16 01:35:38;;;;;;;15.40;3.13;;;;;;;;;;5031618;28;20068;-75
2023/05/16 01:38:04;;;;;;;26.17;3.80;;;;;;;;;;5031370;28;20088;-74
2023/05/16 01:40:30;;;;;;;25.58;3.83;;;;;;;;;;5031203;28;20118;-74
2023/05/16 01:43:00;;;;;;;19.55;3.40;;;;;;;;;;5030997;28;20045;-75
2023/05/16 01:45:28;;;;;;;19.52;3.10;;;;;;;;;;5031309;28;20045;-74
2023/05/16 01:48:00;;;;;;;15.48;2.65;;;;;;;;;;5031546;28;20410;-77
2023/05/16 01:50:29;;;;;;;23.15;3.42;;;;;;;;;;5031237;28;20431;-74
2023/05/16 01:53:00;;;;;;;19.25;3.40;;;;;;;;;;5030911;28;20053;-74
2023/05/16 01:55:31;;;;;;;17.20;2.90;;;;;;;;;;5031159;28;20386;-75
2023/05/16 01:57:58;;;;;;;21.70;2.83;;;;;;;;;;5031141;28;20029;-74
2023/05/16 02:00:24;;;;;;;16.83;2.72;;;;;;;;;;5030083;28;20033;-74
2023/05/16 02:02:50;;;;;;;22.02;3.10;;;;;;;;;;5029817;28;20037;-73
2023/05/16 02:05:16;;;;;;;18.45;3.17;;;;;;;;;;5030122;28;20029;-74
2023/05/16 02:07:43;;;;;;;16.00;3.03;;;;;;;;;;5029882;28;20499;-74
2023/05/16 02:10:09;;;;;;;16.58;2.88;;;;;;;;;;5029904;28;20033;-73
2023/05/16 02:12:36;;;;;;;25.63;2.60;;;;;;;;;;5029882;28;20494;-73
2023/05/16 02:15:02;;;;;;;20.30;3.25;;;;;;;;;;5029991;28;20080;-73
2023/05/16 02:17:28;;;;;;;22.30;2.97;;;;;;;;;;5030075;28;20195;-74
2023/05/16 02:19:54;;;;;;;19.17;2.72;;;;;;;;;;5029882;28;20029;-74
2023/05/16 02:22:20;;;;;;;20.80;2.90;;;;;;;;;;5029653;28;20036;-74
2023/05/16 02:24:46;;;;;;;19.70;2.97;;;;;;;;;;5032644;28;20435;-74
2023/05/16 02:27:12;;;;;;;15.13;2.88;;;;;;;;;;5034112;28;20095;-74
2023/05/16 02:29:38;;;;;;;24.60;3.28;;;;;;;;;;5033310;28;20542;-74
2023/05/16 02:32:04;;;;;;;20.20;3.35;;;;;;;;;;5033254;28;20120;-74
2023/05/16 02:34:30;;;;;;;18.30;3.40;;;;;;;;;;5033492;28;20045;-74
2023/05/16 02:36:56;;;;;;;20.58;2.88;;;;;;;;;;5033558;28;20022;-74
2023/05/16 02:39:22;;;;;;;16.50;2.95;;;;;;;;;;5033184;28;20031;-74
2023/05/16 02:41:48;;;;;;;15.63;2.50;;;;;;;;;;5033153;28;20022;-76
2023/05/16 02:44:14;;;;;;;26.25;3.92;;;;;;;;;;5033321;28;20018;-74
2023/05/16 02:46:40;;;;;;;27.70;3.55;;;;;;;;;;5033440;28;20380;-75
2023/05/16 02:49:06;;;;;;;22.13;3.20;;;;;;;;;;5033778;28;20029;-74
2023/05/16 02:51:32;;;;;;;24.80;3.65;;;;;;;;;;5033168;28;20022;-73
2023/05/16 02:54:01;;;;;;;22.23;3.47;;;;;;;;;;5032744;28;20029;-74
2023/05/16 02:56:27;;;;;;;23.52;3.90;;;;;;;;;;5033424;28;20357;-73
2023/05/16 02:58:53;;;;;;;22.98;3.35;;;;;;;;;;5033007;28;20021;-74
2023/05/16 03:01:19;;;;;;;22.52;3.83;;;;;;;;;;5030046;28;20034;-74
2023/05/16 03:03:45;;;;;;;21.52;3.20;;;;;;;;;;5032741;28;20036;-74
2023/05/16 03:06:12;;;;;;;31.05;3.85;;;;;;;;;;5037278;28;20394;-74
2023/05/16 03:08:38;;;;;;;23.02;3.17;;;;;;;;;;5052687;28;20038;-73
2023/05/16 03:11:04;;;;;;;23.85;3.30;;;;;;;;;;5052590;28;20505;-74
2023/05/16 03:13:30;;;;;;;17.20;3.50;;;;;;;;;;5052444;28;20021;-75
2023/05/16 03:15:56;;;;;;;25.63;3.80;;;;;;;;;;5052479;28;20029;-74
2023/05/16 03:18:22;;;;;;;23.48;3.63;;;;;;;;;;5052638;28;20478;-75
2023/05/16 03:20:48;;;;;;;27.25;3.63;;;;;;;;;;5052866;28;20036;-73
2023/05/16 03:23:14;;;;;;;21.35;3.30;;;;;;;;;;5052749;28;20435;-73
2023/05/16 03:25:42;;;;;;;26.40;3.75;;;;;;;;;;5052357;28;20040;-73
2023/05/16 03:28:08;;;;;;;29.63;3.70;;;;;;;;;;5052032;28;20430;-73
2023/05/16 03:30:34;;;;;;;30.23;3.72;;;;;;;;;;5052245;28;20021;-73
2023/05/16 03:33:00;;;;;;;34.92;4.78;;;;;;;;;;5051878;28;20112;-74
2023/05/16 03:35:27;;;;;;;31.17;4.30;;;;;;;;;;5051739;28;20159;-73
2023/05/16 03:37:53;;;;;;;19.27;3.85;;;;;;;;;;5051960;28;20108;-73
2023/05/16 03:40:19;;;;;;;28.48;3.83;;;;;;;;;;5052141;28;20112;-72
2023/05/16 03:42:45;;;;;;;26.83;3.72;;;;;;;;;;5052980;28;20032;-72
2023/05/16 03:45:11;;;;;;;23.42;3.58;;;;;;;;;;5053481;28;20029;-72
2023/05/16 03:47:37;;;;;;;34.35;4.35;;;;;;;;;;5053097;28;20021;-73
2023/05/16 03:50:04;;;;;;;29.75;4.35;;;;;;;;;;5053020;28;20032;-73
2023/05/16 03:52:30;;;;;;;31.45;4.13;;;;;;;;;;5053235;28;20025;-73
2023/05/16 03:54:56;;;;;;;29.00;4.18;;;;;;;;;;5053947;28;20383;-74
2023/05/16 03:57:22;;;;;;;30.45;4.25;;;;;;;;;;5045403;28;20029;-75
2023/05/16 03:59:48;;;;;;;31.02;4.00;;;;;;;;;;5032598;28;20026;-76
2023/05/16 04:02:14;;;;;;;30.42;4.32;;;;;;;;;;5032857;28;20499;-76
2023/05/16 04:04:40;;;;;;;34.70;4.38;;;;;;;;;;5034667;28;20053;-77
2023/05/16 04:07:06;;;;;;;29.73;4.32;;;;;;;;;;5026583;28;20501;-77
2023/05/16 04:09:32;;;;;;;24.45;3.42;;;;;;;;;;5037057;28;20423;-74
2023/05/16 04:12:00;;;;;;;36.25;5.03;;;;;;;;;;5032184;28;20028;-74
2023/05/16 04:14:26;;;;;;;32.90;4.53;;;;;;;;;;5032305;28;20013;-74
2023/05/16 04:16:52;;;;;;;32.80;4.32;;;;;;;;;;5032711;28;20404;-74
2023/05/16 04:19:18;;;;;;;32.95;4.38;;;;;;;;;;5032457;28;20021;-73
2023/05/16 04:21:44;;;;;;;28.48;4.25;;;;;;;;;;5032395;28;20454;-74
2023/05/16 04:24:10;;;;;;;31.38;4.00;;;;;;;;;;5032492;28;20052;-74
2023/05/16 04:26:36;;;;;;;37.17;4.50;;;;;;;;;;5032774;28;20101;-74
2023/05/16 04:29:03;;;;;;;32.35;4.22;;;;;;;;;;5032388;28;21714;-73
2023/05/16 04:31:29;;;;;;;31.90;4.60;;;;;;;;;;5032268;28;20413;-73
2023/05/16 04:33:56;;;;;;;26.42;4.60;;;;;;;;;;5032238;28;20223;-74
2023/05/16 04:36:22;;;;;;;35.47;4.10;;;;;;;;;;5032275;28;20053;-74
2023/05/16 04:38:48;;;;;;;31.02;3.80;;;;;;;;;;5031967;28;20032;-75
2023/05/16 04:41:15;;;;;;;29.10;4.05;;;;;;;;;;5032277;28;20049;-73
2023/05/16 04:43:41;;;;;;;34.58;3.20;;;;;;;;;;5028072;28;20057;-77
2023/05/16 04:46:08;;;;;;;18.08;3.53;;;;;;;;;;5030451;28;20052;-76
2023/05/16 04:48:34;;;;;;;29.70;4.05;;;;;;;;;;5029421;28;20033;-75
2023/05/16 04:51:01;;;;;;;30.08;3.85;;;;;;;;;;5032134;28;20026;-76
2023/05/16 04:53:27;;;;;;;23.67;3.38;;;;;;;;;;5027350;28;20026;-77
2023/05/16 04:55:53;;;;;;;24.42;3.45;;;;;;;;;;5026015;28;20025;-78
2023/05/16 04:58:19;;;;;;;28.67;4.05;;;;;;;;;;5031380;28;20045;-74
2023/05/16 05:00:46;;;;;;;26.17;4.18;;;;;;;;;;5031725;28;20055;-74
2023/05/16 05:03:12;;;;;;;25.08;3.90;;;;;;;;;;5031790;28;20029;-74
2023/05/16 05:05:38;;;;;;;24.20;4.47;;;;;;;;;;5032708;28;20025;-74
2023/05/16 05:08:04;;;;;;;20.85;4.28;;;;;;;;;;5033406;28;20041;-73
2023/05/16 05:10:30;;;;;;;25.95;3.58;;;;;;;;;;5033129;28;20031;-75
2023/05/16 05:12:57;;;;;;;33.13;3.95;;;;;;;;;;5032307;28;20056;-74
2023/05/16 05:15:22;;;;;;;25.05;3.72;;;;;;;;;;5032376;28;20431;-73
2023/05/16 05:17:48;;;;;;;31.08;4.32;;;;;;;;;;5031831;28;20064;-74
2023/05/16 05:20:14;;;;;;;25.75;3.05;;;;;;;;;;5031521;28;20034;-75
2023/05/16 05:22:41;;;;;;;27.83;3.67;;;;;;;;;;5031780;28;20553;-73
2023/05/16 05:25:07;;;;;;;24.77;4.20;;;;;;;;;;5031811;28;20026;-74
2023/05/16 05:27:33;;;;;;;32.05;4.13;;;;;;;;;;5032050;28;20053;-74
2023/05/16 05:29:59;;;;;;;28.00;4.28;;;;;;;;;;5031950;28;20052;-74
2023/05/16 05:32:25;;;;;;;30.15;4.82;;;;;;;;;;5031182;28;20030;-74
2023/05/16 05:34:51;;;;;;;42.90;5.18;;;;;;;;;;5031841;28;20025;-74
2023/05/16 05:37:17;;;;;;;29.75;3.78;;;;;;;;;;5031798;28;20404;-75
2023/05/16 05:39:44;;;;;;;38.60;3.95;;;;;;;;;;5031368;28;20045;-74
2023/05/16 05:42:10;;;;;;;29.38;4.25;;;;;;;;;;5031109;28;20541;-74
2023/05/16 05:44:36;;;;;;;24.52;3.05;;;;;;;;;;5031576;28;20132;-75
2023/05/16 05:47:03;;;;;;;29.40;4.22;;;;;;;;;;5031498;28;20483;-75
2023/05/16 05:49:29;;;;;;;22.85;3.60;;;;;;;;;;5031390;28;20029;-75
2023/05/16 05:51:55;;;;;;;27.45;3.03;;;;;;;;;;5031559;28;20394;-74
2023/05/16 05:54:21;;;;;;;24.83;3.53;;;;;;;;;;5031325;28;20022;-75
2023/05/16 05:56:47;;;;;;;30.05;4.00;;;;;;;;;;5031123;28;20080;-74
2023/05/16 05:59:13;;;;;;;27.35;2.88;;;;;;;;;;5033270;28;20025;-75
2023/05/16 06:01:39;;;;;;;27.63;3.33;;;;;;;;;;5032616;28;20030;-76
2023/05/16 06:04:05;;;;;;;24.65;2.95;;;;;;;;;;5031532;28;20032;-73
2023/05/16 06:06:31;;;;;;;32.03;4.72;;;;;;;;;;5034935;28;20025;-74
2023/05/16 06:08:58;;;;;;;30.25;3.47;;;;;;;;;;5035295;28;20436;-74
2023/05/16 06:11:24;;;;;;;28.98;3.33;;;;;;;;;;5032522;28;20029;-73
2023/05/16 06:13:53;;;;;;;26.83;3.63;;;;;;;;;;5034441;28;20156;-75
2023/05/16 06:16:19;;;;;;;21.17;3.42;;;;;;;;;;5033055;28;20026;-72
2023/05/16 06:18:47;;;;;;;18.92;2.83;;;;;;;;;;5034703;28;20115;-73
2023/05/16 06:21:14;;;;;;;20.35;3.63;;;;;;;;;;5034583;28;20368;-73
2023/05/16 06:23:40;;;;;;;21.52;2.70;;;;;;;;;;5034375;28;20026;-72
2023/05/16 06:26:06;;;;;;;21.58;3.15;;;;;;;;;;5034776;28;20025;-73
2023/05/16 06:28:32;;;;;;;19.00;2.78;;;;;;;;;;5034391;28;20033;-72
2023/05/16 06:30:58;;;;;;;20.58;2.88;;;;;;;;;;5034329;28;20379;-72
2023/05/16 06:33:24;;;;;;;37.60;4.93;;;;;;;;;;5034416;28;20491;-73
2023/05/16 06:35:49;;;;;;;21.40;3.28;;;;;;;;;;5034795;28;20059;-73
2023/05/16 06:38:15;;;;;;;21.90;2.55;;;;;;;;;;5033520;28;20029;-74
2023/05/16 06:40:41;;;;;;;25.60;2.95;;;;;;;;;;5033968;28;20036;-72
2023/05/16 06:43:07;;;;;;;25.02;2.92;;;;;;;;;;5034107;28;20100;-72
2023/05/16 06:45:33;;;;;;;26.58;2.78;;;;;;;;;;5034196;28;20029;-73
2023/05/16 06:48:00;;;;;;;21.60;3.47;;;;;;;;;;5034701;28;20387;-73
2023/05/16 06:50:26;;;;;;;17.20;2.90;;;;;;;;;;5034050;28;20033;-72
2023/05/16 06:52:52;;;;;;;20.23;3.50;;;;;;;;;;5033683;28;20391;-74
2023/05/16 06:55:18;;;;;;;26.65;3.53;;;;;;;;;;5033285;28;20022;-73
2023/05/16 06:57:44;;;;;;;30.73;4.28;;;;;;;;;;5033044;28;20040;-73
2023/05/16 07:00:10;;;;;;;25.30;3.33;;;;;;;;;;5032890;28;20026;-73
2023/05/16 07:02:36;;;;;;;15.60;2.63;;;;;;;;;;5033128;28;20030;-73
2023/05/16 07:05:02;;;;;;;21.10;3.65;;;;;;;;;;5033237;28;20030;-74
2023/05/16 07:07:28;;;;;;;22.70;4.45;;;;;;;;;;5033159;28;20419;-75
2023/05/16 07:09:54;;;;;;;24.42;5.55;;;;;;;;;;5031419;28;20029;-74
2023/05/16 07:12:20;;;;;;;28.95;5.50;;;;;;;;;;5032443;28;20655;-74
2023/05/16 07:14:46;;;;;;;28.33;4.55;;;;;;;;;;5032758;28;20029;-73
2023/05/16 07:17:12;;;;;;;35.40;7.18;;;;;;;;;;5033176;28;20032;-74
2023/05/16 07:19:38;;;;;;;32.92;9.32;;;;;;;;;;5032840;28;20022;-72
2023/05/16 07:22:04;;;;;;;34.30;10.15;;;;;;;;;;5032237;28;20029;-74
2023/05/16 07:24:30;;;;;;;43.47;11.10;;;;;;;;;;5032450;28;20116;-74
2023/05/16 07:26:56;;;;;;;27.65;8.27;;;;;;;;;;5032523;28;20116;-72
2023/05/16 07:29:22;;;;;;;27.50;4.63;;;;;;;;;;5032330;28;20067;-73
2023/05/16 07:31:48;;;;;;;29.23;8.57;;;;;;;;;;5031987;28;20079;-74
2023/05/16 07:34:14;;;;;;;16.92;3.47;;;;;;;;;;5032427;28;20029;-73
2023/05/16 07:36:40;;;;;;;20.73;5.55;;;;;;;;;;5032416;28;20492;-75
2023/05/16 07:39:06;;;;;;;18.10;5.03;;;;;;;;;;5032530;28;20036;-79
2023/05/16 07:41:32;;;;;;;27.98;4.60;;;;;;;;;;5032502;28;20022;-72
2023/05/16 07:43:58;;;;;;;20.85;2.45;;;;;;;;;;5032837;28;20056;-74
2023/05/16 07:46:24;;;;;;;18.40;2.60;;;;;;;;;;5032524;28;20091;-74
2023/05/16 07:48:50;;;;;;;16.90;2.35;;;;;;;;;;5031919;28;20061;-73
2023/05/16 07:51:16;;;;;;;12.40;2.13;;;;;;;;;;5032021;28;20060;-73
2023/05/16 07:53:42;;;;;;;12.85;2.42;;;;;;;;;;5032138;28;20476;-73
2023/05/16 07:56:09;;;;;;;14.73;2.05;;;;;;;;;;5032219;28;20033;-73
2023/05/16 07:58:35;;;;;;;12.15;1.92;;;;;;;;;;5032494;28;20025;-73
2023/05/16 08:01:01;;;;;;;20.35;2.47;;;;;;;;;;5032533;28;20488;-73
2023/05/16 08:03:27;;;;;;;9.32;2.20;;;;;;;;;;5032210;28;20087;-73
2023/05/16 08:05:53;;;;;;;25.23;2.65;;;;;;;;;;5032748;28;20048;-75
2023/05/16 08:08:19;;;;;;;12.57;2.40;;;;;;;;;;5032535;28;20531;-74
2023/05/16 08:10:45;;;;;;;15.68;2.60;;;;;;;;;;5032941;28;20026;-73
2023/05/16 08:13:11;;;;;;;21.90;2.30;;;;;;;;;;5032167;28;20032;-73
2023/05/16 08:15:37;;;;;;;22.75;2.67;;;;;;;;;;5032855;28;20025;-73
2023/05/16 08:18:05;;;;;;;19.88;2.70;;;;;;;;;;5032612;28;20033;-73
2023/05/16 08:20:31;;;;;;;22.33;3.25;;;;;;;;;;5032585;28;20369;-73
2023/05/16 08:22:57;;;;;;;23.10;2.92;;;;;;;;;;5032025;28;20032;-73
2023/05/16 08:25:23;;;;;;;16.42;2.78;;;;;;;;;;5032338;28;20037;-72
2023/05/16 08:27:50;;;;;;;18.88;2.55;;;;;;;;;;5032470;28;20112;-73
2023/05/16 08:30:16;;;;;;;16.10;3.47;;;;;;;;;;5032244;28;20563;-74
2023/05/16 08:32:42;;;;;;;14.95;2.40;;;;;;;;;;5032079;28;20057;-72
2023/05/16 08:35:09;;;;;;;14.65;2.30;;;;;;;;;;5032403;28;20028;-74
2023/05/16 08:37:35;;;;;;;16.02;2.92;;;;;;;;;;5032481;28;20022;-75
2023/05/16 08:40:02;;;;;;;17.15;2.35;;;;;;;;;;5032366;28;20025;-74
2023/05/16 08:42:28;;;;;;;12.30;2.00;;;;;;;;;;5031984;28;20419;-74
2023/05/16 08:44:54;;;;;;;12.32;2.20;;;;;;;;;;5032444;28;20057;-75
2023/05/16 08:47:21;;;;;;;13.48;2.60;;;;;;;;;;5032595;28;20040;-74
2023/05/16 08:49:47;;;;;;;13.30;2.42;;;;;;;;;;5032346;28;20486;-75
2023/05/16 08:52:17;;;;;;;8.35;1.98;;;;;;;;;;5032719;28;20036;-74
2023/05/16 08:54:44;;;;;;;15.05;2.47;;;;;;;;;;5032105;28;20491;-74
2023/05/16 08:57:10;;;;;;;15.52;2.95;;;;;;;;;;5032009;28;20021;-74
2023/05/16 08:59:36;;;;;;;17.35;2.38;;;;;;;;;;5032014;28;20029;-75
2023/05/16 09:02:02;;;;;;;17.15;2.40;;;;;;;;;;5031630;28;20498;-75
2023/05/16 09:04:29;;;;;;;16.80;1.98;;;;;;;;;;5031776;28;20025;-74
2023/05/16 09:06:55;;;;;;;12.75;2.40;;;;;;;;;;5032394;28;20022;-77
2023/05/16 09:09:21;;;;;;;17.42;2.47;;;;;;;;;;5032634;28;20037;-77
2023/05/16 09:11:47;;;;;;;20.02;2.40;;;;;;;;;;5030651;28;20084;-76
2023/05/16 09:14:13;;;;;;;13.63;2.20;;;;;;;;;;5031906;28;20068;-74
2023/05/16 09:16:39;;;;;;;16.33;2.80;;;;;;;;;;5031662;28;20029;-76
2023/05/16 09:19:05;;;;;;;14.20;2.70;;;;;;;;;;5031954;28;20092;-77
2023/05/16 09:21:32;;;;;;;12.77;2.80;;;;;;;;;;5032565;28;20022;-77
2023/05/16 09:24:04;;;;;;;15.73;2.78;;;;;;;;;;5033201;28;20507;-77
2023/05/16 09:26:32;;;;;;;16.73;2.17;;;;;;;;;;5031667;28;20079;-75
2023/05/16 09:28:58;;;;;;;20.33;2.83;;;;;;;;;;5031713;28;20376;-73
2023/05/16 09:31:25;;;;;;;20.25;2.83;;;;;;;;;;5031523;28;20104;-73
2023/05/16 09:34:00;;;;;;;13.63;2.55;;;;;;;;;;5029681;28;20022;-73
2023/05/16 09:36:26;;;;;;;22.27;2.80;;;;;;;;;;5032438;28;20480;-74
2023/05/16 09:38:52;;;;;;;17.20;2.40;;;;;;;;;;5030934;28;20025;-74
2023/05/16 09:41:21;;;;;;;15.85;2.47;;;;;;;;;;5031305;28;20026;-74
2023/05/16 09:43:47;;;;;;;13.27;2.33;;;;;;;;;;5039265;28;20033;-74
2023/05/16 09:46:14;;;;;;;12.80;2.65;;;;;;;;;;5051109;28;20319;-75
2023/05/16 09:48:46;;;;;;;12.32;2.20;;;;;;;;;;5051535;28;20025;-74
2023/05/16 09:51:12;;;;;;;17.63;2.40;;;;;;;;;;5051900;28;20025;-75
2023/05/16 09:53:39;;;;;;;13.73;2.95;;;;;;;;;;5051187;28;20033;-74
2023/05/16 09:56:07;;;;;;;19.55;3.33;;;;;;;;;;5051687;28;20028;-75
2023/05/16 09:58:36;;;;;;;13.38;2.83;;;;;;;;;;5052785;28;20032;-74
2023/05/16 10:01:03;;;;;;;16.55;3.63;;;;;;;;;;5051648;28;20090;-75
2023/05/16 10:03:29;;;;;;;23.40;2.92;;;;;;;;;;5051340;28;20025;-74
2023/05/16 10:05:55;;;;;;;18.15;3.50;;;;;;;;;;5051735;28;20505;-75
2023/05/16 10:08:22;;;;;;;18.15;3.42;;;;;;;;;;5051541;28;20057;-76
2023/05/16 10:10:52;;;;;;;18.08;2.85;;;;;;;;;;5050266;28;20082;-76
2023/05/16 10:13:22;;;;;;;13.48;2.50;;;;;;;;;;5051834;28;20090;-74
2023/05/16 10:15:54;;;;;;;14.30;2.92;;;;;;;;;;5052408;28;20102;-74
2023/05/16 10:18:22;;;;;;;14.13;2.20;;;;;;;;;;5052839;28;20021;-74
2023/05/16 10:20:49;;;;;;;20.10;3.17;;;;;;;;;;5045930;28;20029;-73
2023/05/16 10:23:18;;;;;;;29.15;3.35;;;;;;;;;;5028307;28;20033;-72
2023/05/16 10:25:46;;;;;;;20.10;3.05;;;;;;;;;;5030750;28;20254;-73
2023/05/16 10:28:12;;;;;;;14.15;2.95;;;;;;;;;;5028978;28;20040;-72
2023/05/16 10:30:42;;;;;;;14.45;2.88;;;;;;;;;;5030820;28;20110;-73
2023/05/16 10:33:08;;;;;;;18.75;3.15;;;;;;;;;;5028641;28;20435;-72
2023/05/16 10:35:35;;;;;;;27.40;4.10;;;;;;;;;;5022790;28;20026;-74
2023/05/16 10:38:02;;;;;;;18.65;3.22;;;;;;;;;;5026015;28;20025;-73
2023/05/16 10:40:28;;;;;;;16.98;3.17;;;;;;;;;;5030149;28;20025;-75
2023/05/16 10:42:58;;;;;;;21.58;3.25;;;;;;;;;;5028450;28;20305;-75
2023/05/16 10:45:24;;;;;;;19.73;3.47;;;;;;;;;;5031127;28;20044;-73
2023/05/16 10:47:51;;;;;;;21.65;3.67;;;;;;;;;;5033834;28;20021;-75
2023/05/16 10:50:30;;;;;;;22.23;3.47;;;;;;;;;;5031681;28;20021;-76
2023/05/16 10:52:56;;;;;;;19.50;3.35;;;;;;;;;;5029706;28;20475;-74
2023/05/16 10:55:22;;;;;;;20.92;3.45;;;;;;;;;;5027914;28;20065;-74
2023/05/16 10:57:48;;;;;;;25.25;3.38;;;;;;;;;;5028600;28;20049;-74
2023/05/16 11:00:22;;;;;;;20.30;3.00;;;;;;;;;;5027503;28;20033;-74
2023/05/16 11:02:48;;;;;;;28.70;9.55;;;;;;;;;;5034886;28;20021;-75
2023/05/16 11:05:18;;;;;;;13.95;2.75;;;;;;;;;;5029997;28;20022;-73
2023/05/16 11:07:44;;;;;;;13.40;2.85;;;;;;;;;;5033663;28;20058;-75
2023/05/16 11:10:14;;;;;;;20.67;2.90;;;;;;;;;;5034369;28;20110;-75
2023/05/16 11:12:44;;;;;;;14.45;2.72;;;;;;;;;;5033702;28;20021;-74
2023/05/16 11:15:17;;;;;;;24.58;2.97;;;;;;;;;;5034439;28;20045;-74
2023/05/16 11:17:43;;;;;;;13.25;3.13;;;;;;;;;;5033974;28;20025;-74
2023/05/16 11:20:24;;;;;;;12.25;2.40;;;;;;;;;;5033607;28;20033;-73
2023/05/16 11:22:50;;;;;;;13.77;2.10;;;;;;;;;;5033548;28;20025;-73
2023/05/16 11:25:16;;;;;;;9.57;2.40;;;;;;;;;;5034014;28;20112;-73
2023/05/16 11:27:43;;;;;;;15.95;2.08;;;;;;;;;;5033727;28;20048;-73
2023/05/16 11:30:09;;;;;;;9.68;2.42;;;;;;;;;;5030621;28;20121;-75
2023/05/16 11:32:38;;;;;;;7.18;2.10;;;;;;;;;;5013268;28;20029;-73
2023/05/16 11:35:06;;;;;;;11.60;2.00;;;;;;;;;;5014275;28;20043;-73
2023/05/16 11:37:32;;;;;;;9.65;1.92;;;;;;;;;;5013876;28;20084;-73
2023/05/16 11:40:00;;;;;;;9.23;1.70;;;;;;;;;;5014120;28;20030;-73
2023/05/16 11:42:30;;;;;;;16.45;1.88;;;;;;;;;;5014004;28;20026;-73
2023/05/16 11:45:14;;;;;;;9.60;1.50;;;;;;;;;;5014116;28;20033;-73
2023/05/16 11:47:41;;;;;;;13.60;5.17;;;;;;;;;;5013417;28;20057;-71
2023/05/16 11:50:11;;;;;;;10.10;3.00;;;;;;;;;;5013038;28;20448;-75
2023/05/16 11:52:37;;;;;;;21.50;2.58;;;;;;;;;;5012677;28;20029;-74
2023/05/16 11:55:09;;;;;;;10.70;2.13;;;;;;;;;;5013427;28;20022;-75
2023/05/16 11:57:35;;;;;;;19.30;2.47;;;;;;;;;;5012951;28;20504;-73
2023/05/16 12:00:11;;;;;;;12.60;1.92;;;;;;;;;;5012808;28;20037;-75
2023/05/16 12:02:37;;;;;;;9.30;2.10;;;;;;;;;;5013169;28;20030;-74
2023/05/16 12:05:09;;;;;;;10.88;1.60;;;;;;;;;;5013227;28;20053;-74
2023/05/16 12:07:36;;;;;;;18.50;3.13;;;;;;;;;;5012970;28;20033;-73
2023/05/16 12:10:06;;;;;;;17.58;2.65;;;;;;;;;;5012699;28;20034;-74
2023/05/16 12:12:32;;;;;;;11.00;1.98;;;;;;;;;;5013087;28;20025;-75
2023/05/16 12:14:58;;;;;;;7.68;1.75;;;;;;;;;;5013214;28;20024;-73
2023/05/16 12:17:24;;;;;;;15.75;2.30;;;;;;;;;;5013196;28;20030;-76
2023/05/16 12:19:51;;;;;;;8.13;1.70;;;;;;;;;;5013151;28;20044;-73
2023/05/16 12:22:17;;;;;;;11.60;2.10;;;;;;;;;;5012849;28;20076;-75
2023/05/16 12:24:43;;;;;;;10.85;2.15;;;;;;;;;;5012869;28;20527;-74
2023/05/16 12:27:09;;;;;;;9.13;2.00;;;;;;;;;;5012985;28;20104;-73
2023/05/16 12:29:35;;;;;;;11.73;1.65;;;;;;;;;;5012889;28;20024;-76
2023/05/16 12:32:01;;;;;;;12.00;2.00;;;;;;;;;;5013156;28;20018;-78
2023/05/16 12:34:28;;;;;;;10.55;1.80;;;;;;;;;;5012969;28;20021;-74
2023/05/16 12:36:54;;;;;;;14.20;2.75;;;;;;;;;;5012721;28;20100;-74
2023/05/16 12:39:24;;;;;;;18.27;2.42;;;;;;;;;;5011554;28;20112;-75
2023/05/16 12:41:50;;;;;;;21.23;2.83;;;;;;;;;;5012403;28;20030;-74
2023/05/16 12:44:18;;;;;;;13.38;2.38;;;;;;;;;;5012567;28;20446;-75
2023/05/16 12:46:50;;;;;;;15.38;3.17;;;;;;;;;;5011551;28;20518;-74
2023/05/16 12:49:19;;;;;;;16.13;2.72;;;;;;;;;;5012739;28;20077;-79
2023/05/16 12:51:49;;;;;;;16.55;2.78;;;;;;;;;;5014880;28;20030;-75
2023/05/16 12:54:15;;;;;;;18.77;4.13;;;;;;;;;;5012367;28;20029;-75
2023/05/16 12:56:42;;;;;;;14.20;2.50;;;;;;;;;;5029896;28;20032;-73
2023/05/16 12:59:08;;;;;;;17.45;2.83;;;;;;;;;;5026257;28;20024;-75
2023/05/16 13:01:35;;;;;;;12.82;2.30;;;;;;;;;;5030348;28;20029;-72
2023/05/16 13:04:01;;;;;;;11.63;2.28;;;;;;;;;;5028810;28;20071;-73
2023/05/16 13:06:27;;;;;;;10.05;1.65;;;;;;;;;;5031746;28;20518;-75
2023/05/16 13:08:54;;;;;;;10.07;1.70;;;;;;;;;;5031076;28;20127;-73
2023/05/16 13:11:20;;;;;;;3.92;1.00;;;;;;;;;;5031998;28;20387;-75
2023/05/16 13:13:46;;;;;;;6.97;1.80;;;;;;;;;;5029963;28;20120;-74
2023/05/16 13:16:12;;;;;;;8.60;1.63;;;;;;;;;;5031858;28;20056;-73
2023/05/16 13:18:38;;;;;;;6.82;1.70;;;;;;;;;;5031614;28;20436;-74
2023/05/16 13:21:04;;;;;;;17.35;2.20;;;;;;;;;;5031292;28;20021;-74
2023/05/16 13:23:31;;;;;;;14.65;2.22;;;;;;;;;;5031214;28;20108;-75
2023/05/16 13:25:58;;;;;;;7.78;1.50;;;;;;;;;;5031706;28;20026;-74
2023/05/16 13:28:24;;;;;;;10.55;3.05;;;;;;;;;;5030720;28;20029;-74
2023/05/16 13:30:50;;;;;;;26.08;8.80;;;;;;;;;;5034651;28;20025;-75
2023/05/16 13:33:16;;;;;;;12.15;4.07;;;;;;;;;;5035596;28;20231;-74
2023/05/16 13:35:43;;;;;;;11.48;2.10;;;;;;;;;;5031539;28;20156;-74
2023/05/16 13:38:09;;;;;;;14.35;2.58;;;;;;;;;;5031647;28;20025;-74
2023/05/16 13:40:35;;;;;;;11.98;3.13;;;;;;;;;;5031458;28;20033;-75
2023/05/16 13:43:01;;;;;;;14.32;2.80;;;;;;;;;;5030479;28;20526;-74
2023/05/16 13:45:27;;;;;;;8.68;1.80;;;;;;;;;;5031533;28;20037;-73
2023/05/16 13:47:53;;;;;;;9.40;2.00;;;;;;;;;;5031183;28;20076;-73
2023/05/16 13:50:20;;;;;;;5.57;1.40;;;;;;;;;;5025612;28;20392;-73
2023/05/16 13:52:46;;;;;;;9.43;2.13;;;;;;;;;;5030160;28;20402;-74
2023/05/16 13:55:13;;;;;;;9.10;1.80;;;;;;;;;;5031273;28;20017;-73
2023/05/16 13:57:39;;;;;;;12.52;3.00;;;;;;;;;;5030015;28;20065;-74
2023/05/16 14:00:11;;;;;;;7.32;1.88;;;;;;;;;;5031666;28;20037;-75
2023/05/16 14:02:37;;;;;;;7.97;2.33;;;;;;;;;;5030915;28;20479;-74
2023/05/16 14:05:03;;;;;;;9.85;2.33;;;;;;;;;;5031443;28;20438;-74
2023/05/16 14:07:29;;;;;;;10.80;2.97;;;;;;;;;;5031488;28;20029;-74
2023/05/16 14:09:55;;;;;;;11.48;2.20;;;;;;;;;;5028645;28;20379;-74
2023/05/16 14:12:21;;;;;;;10.68;2.50;;;;;;;;;;5030981;28;20018;-75
2023/05/16 14:14:47;;;;;;;8.43;1.75;;;;;;;;;;5030928;28;20041;-73
2023/05/16 14:17:13;;;;;;;9.20;2.05;;;;;;;;;;5031081;28;20056;-74
2023/05/16 14:19:39;;;;;;;7.88;2.00;;;;;;;;;;5031945;28;20111;-73
2023/05/16 14:22:05;;;;;;;14.68;2.90;;;;;;;;;;5035315;28;20029;-74
2023/05/16 14:24:31;;;;;;;10.57;2.13;;;;;;;;;;5034972;28;20039;-73
2023/05/16 14:26:57;;;;;;;8.13;1.55;;;;;;;;;;5034734;28;20029;-75
2023/05/16 14:29:24;;;;;;;5.57;1.65;;;;;;;;;;5034630;28;20076;-76